createdAt,value
2018-04-16T00:02:23.832Z,96298.46
2018-04-16T00:04:53.789Z,96301.03
2018-04-16T00:07:24.336Z,96295.11
2018-04-16T00:09:52.711Z,96298.14
2018-04-16T00:12:21.202Z,96294.77
2018-04-16T00:14:50.189Z,96297.34
2018-04-16T00:17:19.296Z,96297.34
2018-04-16T00:19:47.517Z,96307.93
2018-04-16T00:22:16.566Z,96305.83
2018-04-16T00:24:45.067Z,96309.69
2018-04-16T00:27:14.090Z,96304.16
2018-04-16T00:29:42.641Z,96303.33
2018-04-16T00:32:18.234Z,96302.50
2018-04-16T00:34:53.741Z,96314.00
2018-04-16T00:37:29.326Z,96310.17
2018-04-16T00:40:03.311Z,96322.47
2018-04-16T00:42:39.760Z,96318.70
2018-04-16T00:45:23.260Z,96326.39
2018-04-16T00:47:57.910Z,96323.86
2018-04-16T00:50:33.431Z,96327.28
2018-04-16T00:53:08.702Z,96326.48
2018-04-16T00:55:43.244Z,96326.90
2018-04-16T00:58:18.110Z,96331.58
2018-04-16T01:00:58.497Z,96333.67
2018-04-16T01:06:18.508Z,96340.49
2018-04-16T01:08:52.254Z,96343.47
2018-04-16T01:11:26.797Z,96350.67
2018-04-16T01:14:02.187Z,96350.22
2018-04-16T01:19:16.562Z,96349.35
2018-04-16T01:21:50.172Z,96352.73
2018-04-16T01:24:26.939Z,96356.58
2018-04-16T01:30:17.647Z,96356.57
2018-04-16T01:32:54.021Z,96356.57
2018-04-16T01:35:28.758Z,96365.11
2018-04-16T01:38:12.109Z,96367.70
2018-04-16T01:40:46.583Z,96362.16
2018-04-16T01:43:24.871Z,96368.98
2018-04-16T01:45:58.817Z,96372.00
2018-04-16T01:48:34.476Z,96366.89
2018-04-16T01:51:08.377Z,96370.33
2018-04-16T01:53:43.859Z,96359.77
2018-04-16T01:56:19.358Z,96362.80
2018-04-16T01:58:54.921Z,96372.56
2018-04-16T02:04:42.256Z,96375.54
2018-04-16T02:07:17.018Z,96374.30
2018-04-16T02:09:55.354Z,96372.56
2018-04-16T02:12:30.793Z,96374.30
2018-04-16T02:18:11.130Z,96381.05
2018-04-16T02:20:46.620Z,96379.38
2018-04-16T02:23:29.847Z,96383.25
2018-04-16T02:26:03.840Z,96384.52
2018-04-16T02:28:38.422Z,96378.59
2018-04-16T02:31:13.941Z,96378.61
2018-04-16T02:33:48.617Z,96382.03
2018-04-16T02:39:01.452Z,96385.05
2018-04-16T02:41:36.896Z,96380.81
2018-04-16T02:44:10.706Z,96388.08
2018-04-16T02:46:48.207Z,96388.92
2018-04-16T02:49:22.176Z,96391.47
2018-04-16T02:54:37.835Z,96388.09
2018-04-16T02:57:12.400Z,96392.31
2018-04-16T03:13:28.425Z,96409.83
2018-04-16T03:16:02.361Z,96406.42
2018-04-16T03:18:36.304Z,96408.14
2018-04-16T03:21:15.003Z,96407.69
2018-04-16T03:23:50.455Z,96408.97
2018-04-16T03:26:26.085Z,96406.86
2018-04-16T03:28:59.865Z,96404.75
2018-04-16T03:31:34.803Z,96399.23
2018-04-16T03:34:10.420Z,96404.33
2018-04-16T03:36:44.203Z,96400.91
2018-04-16T03:39:18.903Z,96400.92
2018-04-16T03:41:52.881Z,96399.65
2018-04-16T03:44:26.812Z,96399.64
2018-04-16T03:47:02.214Z,96400.92
2018-04-16T03:49:36.896Z,96403.90
2018-04-16T03:52:16.580Z,96403.90
2018-04-16T03:58:01.924Z,96416.63
2018-04-16T04:00:30.279Z,96414.92
2018-04-16T04:02:58.509Z,96425.55
2018-04-16T04:05:26.833Z,96422.18
2018-04-16T04:07:57.801Z,96430.23
2018-04-16T04:10:26.882Z,96434.89
2018-04-16T04:12:55.353Z,96436.61
2018-04-16T04:15:25.498Z,96436.61
2018-04-16T04:17:55.414Z,96444.65
2018-04-16T04:20:25.487Z,96446.38
2018-04-16T04:26:19.288Z,96443.83
2018-04-16T04:31:36.340Z,96436.61
2018-04-16T04:34:06.334Z,96442.16
2018-04-16T04:36:36.453Z,96448.13
2018-04-16T04:39:07.023Z,96450.66
2018-04-16T04:41:41.718Z,96456.59
2018-04-16T04:44:09.966Z,96458.73
2018-04-16T04:46:38.472Z,96463.38
2018-04-16T04:49:08.498Z,96464.23
2018-04-16T04:51:37.482Z,96459.99
2018-04-16T04:54:08.946Z,96468.92
2018-04-16T04:56:39.381Z,96477.86
2018-04-16T04:59:08.417Z,96481.26
2018-04-16T05:01:41.455Z,96485.54
2018-04-16T05:04:10.041Z,96483.42
2018-04-16T05:06:40.665Z,96503.81
2018-04-16T05:09:10.918Z,96499.19
2018-04-16T05:11:43.161Z,96499.22
2018-04-16T05:14:12.205Z,96505.98
2018-04-16T05:16:42.644Z,96510.22
2018-04-16T05:19:14.640Z,96516.17
2018-04-16T05:21:42.928Z,96509.80
2018-04-16T05:24:13.957Z,96517.83
2018-04-16T05:26:42.977Z,96517.39
2018-04-16T05:29:13.000Z,96525.00
2018-04-16T05:31:43.086Z,96525.41
2018-04-16T05:34:13.008Z,96523.28
2018-04-16T05:36:43.160Z,96523.28
2018-04-16T05:39:11.855Z,96528.39
2018-04-16T05:41:41.889Z,96530.51
2018-04-16T05:44:10.866Z,96532.65
2018-04-16T05:46:40.880Z,96544.52
2018-04-16T05:49:13.210Z,96546.19
2018-04-16T05:51:42.797Z,96548.69
2018-04-16T05:54:17.129Z,96553.36
2018-04-16T05:56:48.395Z,96549.09
2018-04-16T05:59:18.189Z,96554.64
2018-04-16T06:01:46.533Z,96551.69
2018-04-16T06:04:16.159Z,96548.30
2018-04-16T06:06:45.857Z,96552.53
2018-04-16T06:09:16.072Z,96551.66
2018-04-16T06:11:46.548Z,96553.76
2018-04-16T06:14:17.476Z,96554.23
2018-04-16T06:16:46.382Z,96556.31
2018-04-16T06:19:16.287Z,96559.30
2018-04-16T06:21:45.476Z,96559.30
2018-04-16T06:24:16.977Z,96563.95
2018-04-16T06:26:46.140Z,96558.86
2018-04-16T06:29:15.155Z,96562.70
2018-04-16T06:31:44.970Z,96565.66
2018-04-16T06:34:13.712Z,96566.94
2018-04-16T06:36:43.563Z,96566.97
2018-04-16T06:39:14.088Z,96567.36
2018-04-16T06:41:57.288Z,96570.28
2018-04-16T06:44:25.583Z,96571.13
2018-04-16T06:46:53.970Z,96568.56
2018-04-16T06:49:22.332Z,96570.28
2018-04-16T06:51:53.285Z,96567.28
2018-04-16T06:54:21.646Z,96574.91
2018-04-16T06:56:50.139Z,96567.70
2018-04-16T06:59:18.505Z,96579.13
2018-04-16T07:01:48.536Z,96578.73
2018-04-16T07:04:16.926Z,96582.55
2018-04-16T07:06:47.949Z,96577.84
2018-04-16T07:09:16.224Z,96590.13
2018-04-16T07:11:44.534Z,96593.55
2018-04-16T07:16:49.593Z,96602.39
2018-04-16T07:19:25.391Z,96601.95
2018-04-16T07:21:54.425Z,96600.66
2018-04-16T07:24:26.879Z,96606.56
2018-04-16T07:26:55.302Z,96602.37
2018-04-16T07:29:23.769Z,96605.34
2018-04-16T07:31:52.150Z,96604.03
2018-04-16T07:34:20.641Z,96607.42
2018-04-16T07:36:50.619Z,96615.06
2018-04-16T07:39:19.048Z,96616.76
2018-04-16T07:41:49.098Z,96620.16
2018-04-16T07:44:19.345Z,96622.70
2018-04-16T07:46:49.363Z,96617.19
2018-04-16T07:49:17.901Z,96621.00
2018-04-16T07:51:47.954Z,96617.16
2018-04-16T07:54:21.007Z,96613.31
2018-04-16T07:56:50.012Z,96624.72
2018-04-16T07:59:20.469Z,96628.54
2018-04-16T08:01:50.448Z,96625.55
2018-04-16T08:04:18.743Z,96634.05
2018-04-16T08:06:47.128Z,96622.57
2018-04-16T08:09:16.238Z,96626.41
2018-04-16T08:11:47.754Z,96626.41
2018-04-16T08:14:16.038Z,96633.19
2018-04-16T08:16:45.176Z,96639.98
2018-04-16T08:19:15.272Z,96643.83
2018-04-16T08:21:45.224Z,96652.75
2018-04-16T08:24:15.833Z,96646.80
2018-04-16T08:26:45.140Z,96654.00
2018-04-16T08:29:15.339Z,96660.81
2018-04-16T08:31:43.813Z,96655.70
2018-04-16T08:34:14.898Z,96668.45
2018-04-16T08:36:43.375Z,96665.94
2018-04-16T08:39:24.655Z,96668.91
2018-04-16T08:41:52.981Z,96663.36
2018-04-16T08:44:21.323Z,96665.89
2018-04-16T08:46:49.803Z,96673.53
2018-04-16T08:49:20.734Z,96671.42
2018-04-16T08:51:50.789Z,96670.98
2018-04-16T08:54:19.256Z,96673.09
2018-04-16T08:56:47.681Z,96678.58
2018-04-16T08:59:16.117Z,96679.84
2018-04-16T09:01:44.661Z,96677.28
2018-04-16T09:04:39.117Z,96684.88
2018-04-16T09:07:09.204Z,96687.88
2018-04-16T09:09:37.643Z,96684.45
2018-04-16T09:12:05.983Z,96689.92
2018-04-16T09:14:36.157Z,96693.29
2018-04-16T09:19:39.187Z,96690.18
2018-04-16T09:22:17.832Z,96686.70
2018-04-16T09:24:49.638Z,96693.45
2018-04-16T09:27:18.160Z,96698.97
2018-04-16T09:29:48.299Z,96700.14
2018-04-16T09:32:18.511Z,96697.97
2018-04-16T09:34:48.559Z,96701.31
2018-04-16T09:37:18.588Z,96706.70
2018-04-16T09:39:48.700Z,96701.50
2018-04-16T09:42:17.665Z,96705.18
2018-04-16T09:44:48.670Z,96716.19
2018-04-16T09:47:20.869Z,96715.70
2018-04-16T09:49:49.278Z,96723.83
2018-04-16T09:52:19.431Z,96718.78
2018-04-16T09:54:49.641Z,96725.11
2018-04-16T09:57:19.625Z,96723.33
2018-04-16T09:59:49.653Z,96723.29
2018-04-16T10:02:28.671Z,96726.23
2018-04-16T10:04:58.643Z,96724.92
2018-04-16T10:07:30.798Z,96723.71
2018-04-16T10:10:00.960Z,96729.13
2018-04-16T10:12:29.257Z,96728.54
2018-04-16T10:14:59.651Z,96729.83
2018-04-16T10:17:29.705Z,96733.25
2018-04-16T10:19:58.193Z,96733.66
2018-04-16T10:22:28.271Z,96740.89
2018-04-16T10:24:56.591Z,96738.24
2018-04-16T10:29:57.804Z,96737.95
2018-04-16T10:32:26.191Z,96739.47
2018-04-16T10:34:56.255Z,96744.41
2018-04-16T10:37:25.262Z,96742.02
2018-04-16T10:39:56.520Z,96742.24
2018-04-16T10:42:26.405Z,96742.95
2018-04-16T10:44:54.882Z,96739.28
2018-04-16T10:47:25.870Z,96734.80
2018-04-16T10:49:56.839Z,96742.81
2018-04-16T10:52:33.527Z,96733.85
2018-04-16T10:55:03.730Z,96736.28
2018-04-16T10:57:33.789Z,96740.91
2018-04-16T11:00:06.185Z,96733.91
2018-04-16T11:02:37.098Z,96740.25
2018-04-16T11:05:05.510Z,96740.64
2018-04-16T11:07:33.995Z,96742.20
2018-04-16T11:10:03.714Z,96745.95
2018-04-16T11:12:32.894Z,96752.18
2018-04-16T11:15:02.748Z,96748.25
2018-04-16T11:17:32.674Z,96746.80
2018-04-16T11:20:02.368Z,96746.27
2018-04-16T11:22:34.156Z,96747.61
2018-04-16T11:25:03.568Z,96759.50
2018-04-16T11:27:36.298Z,96753.63
2018-04-16T11:30:06.466Z,96750.60
2018-04-16T11:32:36.253Z,96752.17
2018-04-16T11:35:05.967Z,96751.08
2018-04-16T11:37:34.435Z,96757.86
2018-04-16T11:40:04.394Z,96756.58
2018-04-16T11:42:33.691Z,96756.38
2018-04-16T11:45:05.129Z,96756.58
2018-04-16T11:47:35.083Z,96758.05
2018-04-16T11:50:05.107Z,96753.64
2018-04-16T11:52:34.687Z,96759.16
2018-04-16T11:55:05.254Z,96759.77
2018-04-16T11:57:35.786Z,96762.96
2018-04-16T12:00:05.681Z,96762.50
2018-04-16T12:02:35.701Z,96761.92
2018-04-16T12:05:05.426Z,96765.58
2018-04-16T12:07:35.113Z,96764.33
2018-04-16T12:10:03.786Z,96760.38
2018-04-16T12:12:33.973Z,96759.55
2018-04-16T12:15:03.823Z,96758.50
2018-04-16T12:17:32.821Z,96755.58
2018-04-16T12:20:04.087Z,96758.06
2018-04-16T12:22:33.875Z,96757.21
2018-04-16T12:25:03.076Z,96764.91
2018-04-16T12:27:38.347Z,96762.04
2018-04-16T12:30:09.443Z,96767.38
2018-04-16T12:32:37.775Z,96767.60
2018-04-16T12:35:06.128Z,96766.63
2018-04-16T12:37:34.620Z,96762.13
2018-04-16T12:40:17.304Z,96771.53
2018-04-16T12:42:51.536Z,96770.33
2018-04-16T12:45:20.018Z,96773.22
2018-04-16T12:47:54.238Z,96769.39
2018-04-16T12:50:22.642Z,96765.09
2018-04-16T12:52:50.998Z,96763.30
2018-04-16T12:55:41.108Z,96757.80
2018-04-16T12:58:10.308Z,96760.27
2018-04-16T13:00:42.447Z,96757.41
2018-04-16T13:03:12.586Z,96755.17
2018-04-16T13:08:15.679Z,96769.16
2018-04-16T13:10:44.182Z,96770.83
2018-04-16T13:13:20.011Z,96770.17
2018-04-16T13:15:48.395Z,96771.50
2018-04-16T13:18:18.444Z,96766.85
2018-04-16T13:20:47.719Z,96763.19
2018-04-16T13:23:23.590Z,96764.86
2018-04-16T13:25:59.221Z,96758.23
2018-04-16T13:28:29.069Z,96764.80
2018-04-16T13:30:58.911Z,96759.81
2018-04-16T13:33:34.478Z,96765.29
2018-04-16T13:36:04.360Z,96762.91
2018-04-16T13:38:40.471Z,96763.34
2018-04-16T13:41:10.012Z,96770.95
2018-04-16T13:43:40.834Z,96771.28
2018-04-16T13:46:10.061Z,96773.91
2018-04-16T13:48:39.097Z,96771.22
2018-04-16T13:51:08.055Z,96776.23
2018-04-16T13:53:38.905Z,96772.64
2018-04-16T13:56:09.280Z,96776.65
2018-04-16T13:58:39.947Z,96771.05
2018-04-16T14:01:14.994Z,96773.19
2018-04-16T14:03:44.494Z,96778.11
2018-04-16T14:06:20.469Z,96777.99
2018-04-16T14:08:50.159Z,96780.22
2018-04-16T14:11:25.331Z,96777.20
2018-04-16T14:13:55.108Z,96782.48
2018-04-16T14:16:25.062Z,96780.25
2018-04-16T14:18:56.328Z,96781.45
2018-04-16T14:21:26.182Z,96792.81
2018-04-16T14:24:02.115Z,96795.94
2018-04-16T14:26:37.478Z,96791.34
2018-04-16T14:29:07.542Z,96797.52
2018-04-16T14:31:43.412Z,96792.33
2018-04-16T14:34:17.756Z,96795.66
2018-04-16T14:36:46.996Z,96794.08
2018-04-16T14:39:21.988Z,96801.80
2018-04-16T14:41:56.413Z,96799.78
2018-04-16T14:44:26.632Z,96800.77
2018-04-16T14:46:56.376Z,96799.67
2018-04-16T14:49:27.694Z,96803.58
2018-04-16T14:51:56.787Z,96803.30
2018-04-16T14:54:28.599Z,96807.23
2018-04-16T14:56:58.453Z,96811.39
2018-04-16T14:59:32.861Z,96811.19
2018-04-16T15:02:02.730Z,96815.89
2018-04-16T15:04:38.837Z,96822.31
2018-04-16T15:07:08.375Z,96818.93
2018-04-16T15:09:42.722Z,96821.14
2018-04-16T15:12:13.077Z,96825.38
2018-04-16T15:14:43.183Z,96828.88
2018-04-16T15:17:13.609Z,96831.94
2018-04-16T15:19:46.191Z,96831.37
2018-04-16T15:22:19.640Z,96832.52
2018-04-16T15:24:50.090Z,96834.89
2018-04-16T15:27:21.253Z,96829.94
2018-04-16T15:29:50.472Z,96831.89
2018-04-16T15:32:19.498Z,96827.81
2018-04-16T15:34:50.971Z,96827.58
2018-04-16T15:37:20.131Z,96833.64
2018-04-16T15:39:49.093Z,96837.09
2018-04-16T15:42:18.988Z,96833.94
2018-04-16T15:44:52.401Z,96831.91
2018-04-16T15:47:25.663Z,96836.70
2018-04-16T15:49:54.281Z,96833.78
2018-04-16T15:52:23.905Z,96840.41
2018-04-16T15:54:53.286Z,96836.78
2018-04-16T15:57:22.285Z,96843.16
2018-04-16T15:59:50.771Z,96848.05
2018-04-16T16:02:23.325Z,96849.75
2018-04-16T16:04:52.984Z,96850.31
2018-04-16T16:07:22.364Z,96850.84
2018-04-16T16:09:51.979Z,96854.33
2018-04-16T16:12:21.491Z,96858.21
2018-04-16T16:14:52.191Z,96860.35
2018-04-16T16:17:27.869Z,96860.38
2018-04-16T16:19:59.039Z,96860.42
2018-04-16T16:22:29.764Z,96857.95
2018-04-16T16:25:00.135Z,96870.41
2018-04-16T16:27:34.718Z,96874.98
2018-04-16T16:30:09.570Z,96875.91
2018-04-16T16:35:24.969Z,96887.41
2018-04-16T16:37:56.229Z,96918.64
2018-04-16T16:40:24.642Z,96929.63
2018-04-16T16:42:53.144Z,96929.35
2018-04-16T16:45:23.251Z,96919.39
2018-04-16T16:47:53.336Z,96913.98
2018-04-16T16:50:21.870Z,96925.91
2018-04-16T16:52:52.105Z,96928.12
2018-04-16T16:55:22.263Z,96923.44
2018-04-16T16:57:52.510Z,96930.25
2018-04-16T17:00:26.919Z,96923.83
2018-04-16T17:02:57.044Z,96923.88
2018-04-16T17:05:46.043Z,96937.91
2018-04-16T17:08:17.004Z,96940.45
2018-04-16T17:10:45.431Z,96937.94
2018-04-16T17:13:15.726Z,96939.17
2018-04-16T17:15:51.259Z,96941.27
2018-04-16T17:18:23.086Z,96945.50
2018-04-16T17:20:54.181Z,96941.23
2018-04-16T17:23:25.950Z,96945.84
2018-04-16T17:25:56.019Z,96948.44
2018-04-16T17:28:25.541Z,96956.55
2018-04-16T17:30:54.959Z,96959.11
2018-04-16T17:33:25.972Z,96959.19
2018-04-16T17:35:57.137Z,96960.08
2018-04-16T17:38:27.117Z,96966.94
2018-04-16T17:40:57.274Z,96969.53
2018-04-16T17:43:27.395Z,96975.07
2018-04-16T17:45:58.458Z,96974.65
2018-04-16T17:48:26.818Z,96976.36
2018-04-16T17:50:56.545Z,96972.97
2018-04-16T17:53:26.510Z,96982.33
2018-04-16T17:55:56.398Z,96979.78
2018-04-16T17:58:26.210Z,96989.13
2018-04-16T18:00:55.135Z,96990.41
2018-04-16T18:03:25.064Z,96995.94
2018-04-16T18:05:54.729Z,96999.33
2018-04-16T18:08:24.528Z,97007.42
2018-04-16T18:10:54.147Z,97011.67
2018-04-16T18:13:23.750Z,97014.25
2018-04-16T18:15:53.585Z,97015.96
2018-04-16T18:18:23.659Z,97014.27
2018-04-16T18:20:55.175Z,97015.55
2018-04-16T18:23:25.155Z,97026.17
2018-04-16T18:25:54.752Z,97040.22
2018-04-16T18:28:25.259Z,97044.90
2018-04-16T18:30:55.728Z,97049.14
2018-04-16T18:33:25.351Z,97047.42
2018-04-16T18:35:54.067Z,97050.83
2018-04-16T18:38:24.120Z,97058.06
2018-04-16T18:40:53.996Z,97066.11
2018-04-16T18:43:24.601Z,97071.63
2018-04-16T18:45:54.561Z,97080.16
2018-04-16T18:48:24.664Z,97082.27
2018-04-16T18:50:54.854Z,97088.64
2018-04-16T18:53:24.715Z,97088.64
2018-04-16T18:55:54.425Z,97095.43
2018-04-16T18:58:24.538Z,97096.28
2018-04-16T19:00:55.568Z,97097.53
2018-04-16T19:03:26.925Z,97105.59
2018-04-16T19:06:01.692Z,97108.12
2018-04-16T19:08:31.370Z,97101.31
2018-04-16T19:11:00.978Z,97106.83
2018-04-16T19:13:29.599Z,97107.67
2018-04-16T19:15:59.434Z,97113.17
2018-04-16T19:18:29.401Z,97115.69
2018-04-16T19:21:05.103Z,97120.77
2018-04-16T19:23:35.058Z,97131.36
2018-04-16T19:26:04.302Z,97130.50
2018-04-16T19:28:32.713Z,97132.61
2018-04-16T19:31:01.826Z,97142.34
2018-04-16T19:33:37.051Z,97144.48
2018-04-16T19:36:05.759Z,97146.59
2018-04-16T19:38:35.747Z,97148.70
2018-04-16T19:41:05.315Z,97151.25
2018-04-16T19:43:38.005Z,97153.33
2018-04-16T19:46:07.733Z,97154.59
2018-04-16T19:48:42.737Z,97156.71
2018-04-16T19:51:11.510Z,97157.14
2018-04-16T19:53:41.318Z,97166.05
2018-04-16T19:56:18.583Z,97166.88
2018-04-16T19:58:48.692Z,97166.46
2018-04-16T20:01:18.681Z,97159.69
2018-04-16T20:03:53.724Z,97155.44
2018-04-16T20:06:23.549Z,97166.91
2018-04-16T20:08:53.491Z,97164.37
2018-04-16T20:11:24.408Z,97166.05
2018-04-16T20:13:52.872Z,97166.48
2018-04-16T20:16:21.406Z,97172.81
2018-04-16T20:18:49.897Z,97172.39
2018-04-16T20:21:18.381Z,97172.81
2018-04-16T20:23:46.866Z,97179.16
2018-04-16T20:26:15.246Z,97176.59
2018-04-16T20:28:43.603Z,97176.17
2018-04-16T20:31:12.010Z,97183.40
2018-04-16T20:33:42.078Z,97183.40
2018-04-16T20:36:10.394Z,97188.91
2018-04-16T20:38:38.861Z,97189.73
2018-04-16T20:41:09.829Z,97191.88
2018-04-16T20:43:38.222Z,97197.38
2018-04-16T20:46:06.809Z,97194.39
2018-04-16T20:48:36.760Z,97201.19
2018-04-16T20:51:05.828Z,97199.45
2018-04-16T20:53:34.936Z,97199.41
2018-04-16T20:56:04.938Z,97206.16
2018-04-16T20:58:33.334Z,97213.30
2018-04-16T21:01:01.808Z,97208.61
2018-04-16T21:03:30.814Z,97208.57
2018-04-16T21:05:59.187Z,97205.16
2018-04-16T21:08:29.200Z,97204.27
2018-04-16T21:10:59.292Z,97206.80
2018-04-16T21:13:29.417Z,97212.69
2018-04-16T21:15:59.433Z,97222.80
2018-04-16T21:18:29.792Z,97225.76
2018-04-16T21:20:58.866Z,97234.63
2018-04-16T21:23:27.900Z,97232.44
2018-04-16T21:25:56.296Z,97236.17
2018-04-16T21:28:24.768Z,97237.40
2018-04-16T21:30:53.264Z,97242.50
2018-04-16T21:33:24.194Z,97245.89
2018-04-16T21:35:54.254Z,97248.87
2018-04-16T21:38:23.621Z,97250.99
2018-04-16T21:40:53.719Z,97251.80
2018-04-16T21:43:30.192Z,97256.87
2018-04-16T21:46:01.172Z,97259.78
2018-04-16T21:48:31.129Z,97265.70
2018-04-16T21:51:00.190Z,97264.02
2018-04-16T21:53:32.274Z,97269.50
2018-04-16T21:56:02.276Z,97269.11
2018-04-16T21:58:32.220Z,97267.39
2018-04-16T22:01:03.138Z,97270.38
2018-04-16T22:03:31.488Z,97272.46
2018-04-16T22:06:01.563Z,97275.41
2018-04-16T22:08:29.889Z,97278.27
2018-04-16T22:10:59.919Z,97280.81
2018-04-16T22:13:28.419Z,97279.56
2018-04-16T22:15:56.763Z,97287.63
2018-04-16T22:18:28.089Z,97290.98
2018-04-16T22:21:00.116Z,97298.64
2018-04-16T22:23:30.300Z,97305.89
2018-04-16T22:26:02.355Z,97299.55
2018-04-16T22:28:34.470Z,97300.00
2018-04-16T22:31:05.575Z,97300.83
2018-04-16T22:33:38.777Z,97302.13
2018-04-16T22:36:10.414Z,97294.97
2018-04-16T22:38:45.467Z,97303.03
2018-04-16T22:41:27.014Z,97304.72
2018-04-16T22:43:56.224Z,97305.14
2018-04-16T22:46:31.195Z,97298.35
2018-04-16T22:49:04.170Z,97303.48
2018-04-16T22:51:41.090Z,97314.89
2018-04-16T22:54:18.925Z,97301.80
2018-04-16T22:56:47.442Z,97300.51
2018-04-16T22:59:17.632Z,97297.98
2018-04-16T23:01:51.498Z,97302.23
2018-04-16T23:04:23.409Z,97299.30
2018-04-16T23:06:54.535Z,97305.69
2018-04-16T23:09:27.629Z,97308.67
2018-04-16T23:12:00.708Z,97314.62
2018-04-16T23:14:29.625Z,97315.88
2018-04-16T23:17:03.356Z,97315.06
2018-04-16T23:19:36.207Z,97319.73
2018-04-16T23:22:08.434Z,97313.80
2018-04-16T23:24:38.821Z,97326.54
2018-04-16T23:27:18.826Z,97319.37
2018-04-16T23:29:49.119Z,97313.43
2018-04-16T23:32:19.628Z,97317.27
2018-04-16T23:34:53.046Z,97326.59
2018-04-16T23:37:23.069Z,97331.30
2018-04-16T23:39:51.442Z,97332.56
2018-04-16T23:42:19.914Z,97336.41
2018-04-16T23:44:48.326Z,97337.66
2018-04-16T23:47:18.294Z,97339.38
2018-04-16T23:49:48.335Z,97339.33
2018-04-16T23:52:18.846Z,97345.66
2018-04-16T23:54:49.424Z,97343.13
2018-04-16T23:57:17.938Z,97346.94
2018-04-16T23:59:46.339Z,97345.67
